sensor_id;sensor_type;location;lat;lon;timestamp;pressure;altitude;pressure_sealevel;temperature;humidity
12172;BME280;6149;52.418;13.668;2023-03-04T00:02:16;101404.19;;;2.25;100.00
12172;BME280;6149;52.418;13.668;2023-03-04T00:04:43;101405.84;;;2.38;100.00
12172;BME280;6149;52.418;13.668;2023-03-04T00:07:09;101407.66;;;2.27;100.00
12172;BME280;6149;52.418;13.668;2023-03-04T00:09:36;101407.59;;;2.33;100.00
12172;BME280;6149;52.418;13.668;2023-03-04T00:12:03;101398.09;;;2.26;100.00
12172;BME280;6149;52.418;13.668;2023-03-04T00:14:32;101395.47;;;2.27;100.00
12172;BME280;6149;52.418;13.668;2023-03-04T00:16:58;101390.31;;;2.21;100.00
12172;BME280;6149;52.418;13.668;2023-03-04T00:19:26;101382.53;;;2.11;100.00
12172;BME280;6149;52.418;13.668;2023-03-04T00:21:52;101386.88;;;2.13;100.00
12172;BME280;6149;52.418;13.668;2023-03-04T00:24:19;101387.78;;;2.09;100.00
12172;BME280;6149;52.418;13.668;2023-03-04T00:26:45;101379.94;;;2.12;100.00
12172;BME280;6149;52.418;13.668;2023-03-04T00:29:12;101376.44;;;2.12;100.00
12172;BME280;6149;52.418;13.668;2023-03-04T00:31:39;101371.22;;;2.12;100.00
12172;BME280;6149;52.418;13.668;2023-03-04T00:34:05;101371.28;;;2.06;100.00
12172;BME280;6149;52.418;13.668;2023-03-04T00:36:33;101361.69;;;2.09;100.00
12172;BME280;6149;52.418;13.668;2023-03-04T00:39:00;101373.00;;;2.08;100.00
12172;BME280;6149;52.418;13.668;2023-03-04T00:41:26;101372.97;;;2.14;100.00
12172;BME280;6149;52.418;13.668;2023-03-04T00:43:53;101369.47;;;2.15;100.00
12172;BME280;6149;52.418;13.668;2023-03-04T00:46:19;101366.88;;;2.17;100.00
12172;BME280;6149;52.418;13.668;2023-03-04T00:48:46;101363.44;;;2.07;100.00
12172;BME280;6149;52.418;13.668;2023-03-04T00:51:12;101364.34;;;2.01;100.00
12172;BME280;6149;52.418;13.668;2023-03-04T00:53:40;101359.13;;;1.97;100.00
12172;BME280;6149;52.418;13.668;2023-03-04T00:56:06;101355.66;;;1.98;100.00
12172;BME280;6149;52.418;13.668;2023-03-04T00:58:33;101359.97;;;2.02;100.00
12172;BME280;6149;52.418;13.668;2023-03-04T01:00:59;101360.00;;;1.99;100.00
12172;BME280;6149;52.418;13.668;2023-03-04T01:03:26;101350.44;;;1.98;100.00
12172;BME280;6149;52.418;13.668;2023-03-04T01:05:55;101350.44;;;1.98;100.00
12172;BME280;6149;52.418;13.668;2023-03-04T01:08:22;101335.59;;;2.11;100.00
12172;BME280;6149;52.418;13.668;2023-03-04T01:10:50;101343.41;;;2.12;100.00
12172;BME280;6149;52.418;13.668;2023-03-04T01:13:17;101339.88;;;2.22;100.00
12172;BME280;6149;52.418;13.668;2023-03-04T01:15:43;101350.31;;;2.19;100.00
12172;BME280;6149;52.418;13.668;2023-03-04T01:18:10;101352.94;;;2.18;100.00
12172;BME280;6149;52.418;13.668;2023-03-04T01:20:37;101345.03;;;2.25;100.00
12172;BME280;6149;52.418;13.668;2023-03-04T01:23:03;101343.28;;;2.27;100.00
12172;BME280;6149;52.418;13.668;2023-03-04T01:25:30;101334.56;;;2.31;100.00
12172;BME280;6149;52.418;13.668;2023-03-04T01:27:58;101324.03;;;2.44;100.00
12172;BME280;6149;52.418;13.668;2023-03-04T01:30:24;101325.78;;;2.42;100.00
12172;BME280;6149;52.418;13.668;2023-03-04T01:32:51;101313.59;;;2.45;100.00
12172;BME280;6149;52.418;13.668;2023-03-04T01:35:17;101319.69;;;2.43;100.00
12172;BME280;6149;52.418;13.668;2023-03-04T01:37:44;101314.50;;;2.37;100.00
12172;BME280;6149;52.418;13.668;2023-03-04T01:40:12;101313.63;;;2.41;100.00
12172;BME280;6149;52.418;13.668;2023-03-04T01:42:39;101311.00;;;2.42;100.00
12172;BME280;6149;52.418;13.668;2023-03-04T01:45:12;101307.53;;;2.40;100.00
12172;BME280;6149;52.418;13.668;2023-03-04T01:47:39;101297.97;;;2.38;100.00
12172;BME280;6149;52.418;13.668;2023-03-04T01:50:16;101306.63;;;2.43;100.00
12172;BME280;6149;52.418;13.668;2023-03-04T01:52:47;101304.03;;;2.43;100.00
12172;BME280;6149;52.418;13.668;2023-03-04T01:55:15;101303.16;;;2.44;100.00
12172;BME280;6149;52.418;13.668;2023-03-04T01:57:44;101302.22;;;2.51;100.00
12172;BME280;6149;52.418;13.668;2023-03-04T02:00:24;101313.56;;;2.47;100.00
12172;BME280;6149;52.418;13.668;2023-03-04T02:02:56;101298.78;;;2.47;100.00
12172;BME280;6149;52.418;13.668;2023-03-04T02:05:24;101303.16;;;2.44;100.00
12172;BME280;6149;52.418;13.668;2023-03-04T02:07:52;101296.19;;;2.43;100.00
12172;BME280;6149;52.418;13.668;2023-03-04T02:10:20;101287.47;;;2.47;100.00
12172;BME280;6149;52.418;13.668;2023-03-04T02:12:47;101297.00;;;2.52;100.00
12172;BME280;6149;52.418;13.668;2023-03-04T02:15:15;101288.28;;;2.55;100.00
12172;BME280;6149;52.418;13.668;2023-03-04T02:17:43;101284.69;;;2.62;100.00
12172;BME280;6149;52.418;13.668;2023-03-04T02:20:17;101276.81;;;2.66;100.00
12172;BME280;6149;52.418;13.668;2023-03-04T02:22:54;101269.13;;;2.54;100.00
12172;BME280;6149;52.418;13.668;2023-03-04T02:25:29;101259.56;;;2.55;100.00
12172;BME280;6149;52.418;13.668;2023-03-04T02:28:00;101262.88;;;2.69;100.00
12172;BME280;6149;52.418;13.668;2023-03-04T02:30:27;101269.88;;;2.65;100.00
12172;BME280;6149;52.418;13.668;2023-03-04T02:32:54;101260.25;;;2.71;100.00
12172;BME280;6149;52.418;13.668;2023-03-04T02:35:20;101255.94;;;2.66;100.00
12172;BME280;6149;52.418;13.668;2023-03-04T02:37:47;101251.53;;;2.72;100.00
12172;BME280;6149;52.418;13.668;2023-03-04T02:40:17;101256.81;;;2.65;100.00
12172;BME280;6149;52.418;13.668;2023-03-04T02:42:48;101255.03;;;2.69;100.00
12172;BME280;6149;52.418;13.668;2023-03-04T02:45:34;101252.38;;;2.75;100.00
12172;BME280;6149;52.418;13.668;2023-03-04T02:48:03;101236.72;;;2.75;100.00
12172;BME280;6149;52.418;13.668;2023-03-04T02:50:34;101242.72;;;2.83;100.00
12172;BME280;6149;52.418;13.668;2023-03-04T02:53:03;101235.69;;;2.88;100.00
12172;BME280;6149;52.418;13.668;2023-03-04T02:55:29;101247.97;;;2.80;100.00
12172;BME280;6149;52.418;13.668;2023-03-04T02:57:56;101231.38;;;2.86;100.00
12172;BME280;6149;52.418;13.668;2023-03-04T03:00:23;101231.19;;;2.99;100.00
12172;BME280;6149;52.418;13.668;2023-03-04T03:02:51;101228.53;;;3.02;100.00
12172;BME280;6149;52.418;13.668;2023-03-04T03:05:18;101229.56;;;2.91;100.00
12172;BME280;6149;52.418;13.668;2023-03-04T03:07:45;101234.69;;;2.98;100.00
12172;BME280;6149;52.418;13.668;2023-03-04T03:10:12;101232.16;;;2.92;100.00
12172;BME280;6149;52.418;13.668;2023-03-04T03:12:38;101235.53;;;3.00;100.00
12172;BME280;6149;52.418;13.668;2023-03-04T03:15:06;101217.13;;;3.10;100.00
12172;BME280;6149;52.418;13.668;2023-03-04T03:17:33;101218.97;;;3.03;100.00
12172;BME280;6149;52.418;13.668;2023-03-04T03:20:01;101221.56;;;3.05;100.00
12172;BME280;6149;52.418;13.668;2023-03-04T03:22:28;101226.81;;;3.00;100.00
12172;BME280;6149;52.418;13.668;2023-03-04T03:24:55;101221.50;;;3.09;100.00
12172;BME280;6149;52.418;13.668;2023-03-04T03:27:21;101227.56;;;3.13;100.00
12172;BME280;6149;52.418;13.668;2023-03-04T03:29:48;101223.13;;;3.18;100.00
12172;BME280;6149;52.418;13.668;2023-03-04T03:32:15;101221.44;;;3.15;100.00
12172;BME280;6149;52.418;13.668;2023-03-04T03:34:41;101212.75;;;3.12;100.00
12172;BME280;6149;52.418;13.668;2023-03-04T03:37:09;101217.06;;;3.16;100.00
12172;BME280;6149;52.418;13.668;2023-03-04T03:39:36;101210.19;;;3.09;100.00
12172;BME280;6149;52.418;13.668;2023-03-04T03:42:03;101208.47;;;3.06;100.00
12172;BME280;6149;52.418;13.668;2023-03-04T03:44:29;101211.84;;;3.16;100.00
12172;BME280;6149;52.418;13.668;2023-03-04T03:46:56;101205.72;;;3.17;100.00
12172;BME280;6149;52.418;13.668;2023-03-04T03:49:22;101202.22;;;3.18;100.00
12172;BME280;6149;52.418;13.668;2023-03-04T03:51:49;101199.72;;;3.10;100.00
12172;BME280;6149;52.418;13.668;2023-03-04T03:54:17;101195.41;;;3.08;100.00
12172;BME280;6149;52.418;13.668;2023-03-04T03:56:43;101186.66;;;3.10;100.00
12172;BME280;6149;52.418;13.668;2023-03-04T03:59:10;101184.00;;;3.13;100.00
12172;BME280;6149;52.418;13.668;2023-03-04T04:01:36;101186.47;;;3.24;100.00
12172;BME280;6149;52.418;13.668;2023-03-04T04:04:03;101189.13;;;3.22;100.00
12172;BME280;6149;52.418;13.668;2023-03-04T04:06:30;101181.22;;;3.25;100.00
12172;BME280;6149;52.418;13.668;2023-03-04T04:08:56;101177.84;;;3.17;100.00
12172;BME280;6149;52.418;13.668;2023-03-04T04:11:24;101175.31;;;3.13;100.00
12172;BME280;6149;52.418;13.668;2023-03-04T04:13:52;101174.50;;;3.08;100.00
12172;BME280;6149;52.418;13.668;2023-03-04T04:16:18;101177.03;;;3.14;100.00
12172;BME280;6149;52.418;13.668;2023-03-04T04:18:45;101169.97;;;3.20;100.00
12172;BME280;6149;52.418;13.668;2023-03-04T04:21:12;101170.88;;;3.18;100.00
12172;BME280;6149;52.418;13.668;2023-03-04T04:23:39;101179.53;;;3.21;100.00
12172;BME280;6149;52.418;13.668;2023-03-04T04:26:05;101176.13;;;3.16;100.00
12172;BME280;6149;52.418;13.668;2023-03-04T04:28:33;101177.03;;;3.12;100.00
12172;BME280;6149;52.418;13.668;2023-03-04T04:31:00;101177.06;;;3.11;100.00
12172;BME280;6149;52.418;13.668;2023-03-04T04:33:26;101168.38;;;3.10;100.00
12172;BME280;6149;52.418;13.668;2023-03-04T04:35:53;101165.59;;;3.22;100.00
12172;BME280;6149;52.418;13.668;2023-03-04T04:38:20;101167.41;;;3.17;100.00
12172;BME280;6149;52.418;13.668;2023-03-04T04:40:46;101166.50;;;3.20;100.00
12172;BME280;6149;52.418;13.668;2023-03-04T04:43:13;101166.47;;;3.21;100.00
12172;BME280;6149;52.418;13.668;2023-03-04T04:45:41;101162.09;;;3.23;100.00
12172;BME280;6149;52.418;13.668;2023-03-04T04:48:07;101156.03;;;3.21;100.00
12172;BME280;6149;52.418;13.668;2023-03-04T04:50:34;101155.97;;;3.26;100.00
12172;BME280;6149;52.418;13.668;2023-03-04T04:53:00;101150.81;;;3.20;100.00
12172;BME280;6149;52.418;13.668;2023-03-04T04:55:27;101154.28;;;3.22;100.00
12172;BME280;6149;52.418;13.668;2023-03-04T04:57:54;101152.47;;;3.25;100.00
12172;BME280;6149;52.418;13.668;2023-03-04T05:00:21;101146.34;;;3.29;100.00
12172;BME280;6149;52.418;13.668;2023-03-04T05:02:49;101155.06;;;3.27;100.00
12172;BME280;6149;52.418;13.668;2023-03-04T05:05:15;101156.88;;;3.23;100.00
12172;BME280;6149;52.418;13.668;2023-03-04T05:07:42;101143.72;;;3.29;100.00
12172;BME280;6149;52.418;13.668;2023-03-04T05:10:09;101146.34;;;3.29;100.00
12172;BME280;6149;52.418;13.668;2023-03-04T05:12:36;101141.75;;;3.42;100.00
12172;BME280;6149;52.418;13.668;2023-03-04T05:15:03;101145.34;;;3.35;100.00
12172;BME280;6149;52.418;13.668;2023-03-04T05:17:30;101147.25;;;3.27;100.00
12172;BME280;6149;52.418;13.668;2023-03-04T05:19:58;101141.16;;;3.26;100.00
12172;BME280;6149;52.418;13.668;2023-03-04T05:22:24;101148.06;;;3.30;100.00
12172;BME280;6149;52.418;13.668;2023-03-04T05:24:51;101141.94;;;3.31;100.00
12172;BME280;6149;52.418;13.668;2023-03-04T05:27:17;101148.97;;;3.28;100.00
12172;BME280;6149;52.418;13.668;2023-03-04T05:29:44;101145.34;;;3.36;100.00
12172;BME280;6149;52.418;13.668;2023-03-04T05:32:11;101147.06;;;3.38;100.00
12172;BME280;6149;52.418;13.668;2023-03-04T05:34:37;101138.44;;;3.34;100.00
12172;BME280;6149;52.418;13.668;2023-03-04T05:37:05;101135.75;;;3.37;100.00
12172;BME280;6149;52.418;13.668;2023-03-04T05:39:32;101135.50;;;3.52;100.00
12172;BME280;6149;52.418;13.668;2023-03-04T05:41:58;101133.00;;;3.45;100.00
12172;BME280;6149;52.418;13.668;2023-03-04T05:44:25;101139.00;;;3.53;100.00
12172;BME280;6149;52.418;13.668;2023-03-04T05:46:51;101138.19;;;3.49;100.00
12172;BME280;6149;52.418;13.668;2023-03-04T05:49:18;101140.72;;;3.54;100.00
12172;BME280;6149;52.418;13.668;2023-03-04T05:51:45;101135.44;;;3.57;100.00
12172;BME280;6149;52.418;13.668;2023-03-04T05:54:13;101141.63;;;3.51;100.00
12172;BME280;6149;52.418;13.668;2023-03-04T05:56:40;101135.44;;;3.57;100.00
12172;BME280;6149;52.418;13.668;2023-03-04T05:59:07;101138.00;;;3.61;100.00
12172;BME280;6149;52.418;13.668;2023-03-04T06:01:34;101128.25;;;3.71;100.00
12172;BME280;6149;52.418;13.668;2023-03-04T06:04:00;101147.53;;;3.65;100.00
12172;BME280;6149;52.418;13.668;2023-03-04T06:06:27;101146.66;;;3.65;100.00
12172;BME280;6149;52.418;13.668;2023-03-04T06:08:53;101142.28;;;3.65;100.00
12172;BME280;6149;52.418;13.668;2023-03-04T06:11:21;101138.75;;;3.68;100.00
12172;BME280;6149;52.418;13.668;2023-03-04T06:13:47;101141.28;;;3.73;100.00
12172;BME280;6149;52.418;13.668;2023-03-04T06:16:14;101142.88;;;3.81;100.00
12172;BME280;6149;52.418;13.668;2023-03-04T06:18:41;101136.81;;;3.79;100.00
12172;BME280;6149;52.418;13.668;2023-03-04T06:21:07;101132.44;;;3.80;100.00
12172;BME280;6149;52.418;13.668;2023-03-04T06:23:34;101137.69;;;3.78;100.00
12172;BME280;6149;52.418;13.668;2023-03-04T06:26:00;101150.75;;;3.80;100.00
12172;BME280;6149;52.418;13.668;2023-03-04T06:28:29;101140.25;;;3.83;100.00
12172;BME280;6149;52.418;13.668;2023-03-04T06:30:56;101138.50;;;3.83;100.00
12172;BME280;6149;52.418;13.668;2023-03-04T06:33:23;101134.97;;;3.86;100.00
12172;BME280;6149;52.418;13.668;2023-03-04T06:35:53;101141.75;;;3.96;100.00
12172;BME280;6149;52.418;13.668;2023-03-04T06:38:20;101143.66;;;3.88;100.00
12172;BME280;6149;52.418;13.668;2023-03-04T06:40:47;101140.19;;;3.86;100.00
12172;BME280;6149;52.418;13.668;2023-03-04T06:43:13;101144.47;;;3.90;100.00
12172;BME280;6149;52.418;13.668;2023-03-04T06:45:41;101141.78;;;3.94;100.00
12172;BME280;6149;52.418;13.668;2023-03-04T06:48:08;101155.72;;;3.95;100.00
12172;BME280;6149;52.418;13.668;2023-03-04T06:50:35;101147.94;;;3.92;100.00
12172;BME280;6149;52.418;13.668;2023-03-04T06:53:01;101147.00;;;3.96;100.00
12172;BME280;6149;52.418;13.668;2023-03-04T06:55:28;101146.00;;;4.03;100.00
12172;BME280;6149;52.418;13.668;2023-03-04T06:57:54;101146.72;;;4.10;100.00
12172;BME280;6149;52.418;13.668;2023-03-04T07:00:21;101151.22;;;4.05;100.00
12172;BME280;6149;52.418;13.668;2023-03-04T07:02:50;101146.13;;;3.95;100.00
12172;BME280;6149;52.418;13.668;2023-03-04T07:05:17;101143.44;;;4.00;100.00
12172;BME280;6149;52.418;13.668;2023-03-04T07:07:43;101140.81;;;4.00;100.00
12172;BME280;6149;52.418;13.668;2023-03-04T07:10:10;101136.34;;;4.07;100.00
12172;BME280;6149;52.418;13.668;2023-03-04T07:12:37;101145.97;;;4.06;100.00
12172;BME280;6149;52.418;13.668;2023-03-04T07:15:04;101143.38;;;4.03;100.00
12172;BME280;6149;52.418;13.668;2023-03-04T07:17:32;101147.59;;;4.10;100.00
12172;BME280;6149;52.418;13.668;2023-03-04T07:20:00;101142.50;;;4.04;100.00
12172;BME280;6149;52.418;13.668;2023-03-04T07:22:27;101144.31;;;4.00;100.00
12172;BME280;6149;52.418;13.668;2023-03-04T07:24:53;101152.84;;;4.09;100.00
12172;BME280;6149;52.418;13.668;2023-03-04T07:27:20;101147.41;;;4.21;100.00
12172;BME280;6149;52.418;13.668;2023-03-04T07:29:47;101152.69;;;4.18;100.00
12172;BME280;6149;52.418;13.668;2023-03-04T07:32:13;101154.41;;;4.20;100.00
12172;BME280;6149;52.418;13.668;2023-03-04T07:34:40;101154.38;;;4.22;100.00
12172;BME280;6149;52.418;13.668;2023-03-04T07:37:08;101156.00;;;4.29;100.00
12172;BME280;6149;52.418;13.668;2023-03-04T07:39:34;101153.41;;;4.27;100.00
12172;BME280;6149;52.418;13.668;2023-03-04T07:42:01;101153.44;;;4.26;100.00
12172;BME280;6149;52.418;13.668;2023-03-04T07:44:28;101157.03;;;4.20;100.00
12172;BME280;6149;52.418;13.668;2023-03-04T07:46:54;101161.41;;;4.18;100.00
12172;BME280;6149;52.418;13.668;2023-03-04T07:49:21;101159.72;;;4.16;100.00
12172;BME280;6149;52.418;13.668;2023-03-04T07:51:47;101157.06;;;4.17;100.00
12172;BME280;6149;52.418;13.668;2023-03-04T07:54:15;101157.06;;;4.17;100.00
12172;BME280;6149;52.418;13.668;2023-03-04T07:56:44;101148.31;;;4.20;100.00
12172;BME280;6149;52.418;13.668;2023-03-04T07:59:11;101154.28;;;4.28;100.00
12172;BME280;6149;52.418;13.668;2023-03-04T08:01:37;101145.34;;;4.40;100.00
12172;BME280;6149;52.418;13.668;2023-03-04T08:04:06;101151.41;;;4.42;100.00
12172;BME280;6149;52.418;13.668;2023-03-04T08:06:33;101147.94;;;4.40;100.00
12172;BME280;6149;52.418;13.668;2023-03-04T08:09:03;101152.28;;;4.41;100.00
12172;BME280;6149;52.418;13.668;2023-03-04T08:11:33;101149.31;;;4.57;100.00
12172;BME280;6149;52.418;13.668;2023-03-04T08:14:01;101143.50;;;4.45;100.00
12172;BME280;6149;52.418;13.668;2023-03-04T08:16:28;101151.19;;;4.51;100.00
12172;BME280;6149;52.418;13.668;2023-03-04T08:18:56;101141.66;;;4.47;100.00
12172;BME280;6149;52.418;13.668;2023-03-04T08:21:25;101142.38;;;4.56;100.00
12172;BME280;6149;52.418;13.668;2023-03-04T08:23:53;101136.22;;;4.59;100.00
12172;BME280;6149;52.418;13.668;2023-03-04T08:26:22;101134.28;;;4.68;100.00
12172;BME280;6149;52.418;13.668;2023-03-04T08:28:52;101136.06;;;4.66;100.00
12172;BME280;6149;52.418;13.668;2023-03-04T08:31:20;101135.84;;;4.77;100.00
12172;BME280;6149;52.418;13.668;2023-03-04T08:33:47;101134.88;;;4.81;100.00
12172;BME280;6149;52.418;13.668;2023-03-04T08:36:15;101134.91;;;4.80;100.00
12172;BME280;6149;52.418;13.668;2023-03-04T08:38:42;101129.47;;;4.89;100.00
12172;BME280;6149;52.418;13.668;2023-03-04T08:41:09;101130.28;;;4.91;100.00
12172;BME280;6149;52.418;13.668;2023-03-04T08:43:36;101132.75;;;4.98;100.00
12172;BME280;6149;52.418;13.668;2023-03-04T08:46:04;101127.56;;;4.95;100.00
12172;BME280;6149;52.418;13.668;2023-03-04T08:48:31;101130.50;;;4.82;100.00
12172;BME280;6149;52.418;13.668;2023-03-04T08:50:58;101128.78;;;4.81;100.00
12172;BME280;6149;52.418;13.668;2023-03-04T08:53:25;101116.63;;;4.78;100.00
12172;BME280;6149;52.418;13.668;2023-03-04T08:55:51;101119.22;;;4.78;100.00
12172;BME280;6149;52.418;13.668;2023-03-04T08:58:18;101116.63;;;4.78;100.00
12172;BME280;6149;52.418;13.668;2023-03-04T09:00:47;101117.44;;;4.80;100.00
12172;BME280;6149;52.418;13.668;2023-03-04T09:03:17;101109.59;;;4.80;100.00
12172;BME280;6149;52.418;13.668;2023-03-04T09:05:45;101107.63;;;4.88;100.00
12172;BME280;6149;52.418;13.668;2023-03-04T09:08:13;101115.56;;;4.85;100.00
12172;BME280;6149;52.418;13.668;2023-03-04T09:10:40;101106.59;;;4.97;100.00
12172;BME280;6149;52.418;13.668;2023-03-04T09:13:07;101105.75;;;4.95;100.00
12172;BME280;6149;52.418;13.668;2023-03-04T09:15:35;101115.28;;;4.99;100.00
12172;BME280;6149;52.418;13.668;2023-03-04T09:18:03;101112.63;;;5.00;100.00
12172;BME280;6149;52.418;13.668;2023-03-04T09:20:32;101111.25;;;5.21;100.00
12172;BME280;6149;52.418;13.668;2023-03-04T09:22:58;101117.47;;;5.19;100.00
12172;BME280;6149;52.418;13.668;2023-03-04T09:25:25;101111.47;;;5.14;100.00
12172;BME280;6149;52.418;13.668;2023-03-04T09:27:51;101126.31;;;5.13;100.00
12172;BME280;6149;52.418;13.668;2023-03-04T09:30:18;101120.97;;;5.18;100.00
12172;BME280;6149;52.418;13.668;2023-03-04T09:32:45;101124.38;;;5.21;100.00
12172;BME280;6149;52.418;13.668;2023-03-04T09:35:11;101120.66;;;5.31;100.00
12172;BME280;6149;52.418;13.668;2023-03-04T09:37:39;101119.59;;;5.38;100.00
12172;BME280;6149;52.418;13.668;2023-03-04T09:40:07;101113.56;;;5.35;100.00
12172;BME280;6149;52.418;13.668;2023-03-04T09:42:42;101115.97;;;5.44;100.00
12172;BME280;6149;52.418;13.668;2023-03-04T09:45:15;101126.34;;;5.50;100.00
12172;BME280;6149;52.418;13.668;2023-03-04T09:47:44;101120.09;;;5.56;100.00
12172;BME280;6149;52.418;13.668;2023-03-04T09:50:32;101123.28;;;5.67;100.00
12172;BME280;6149;52.418;13.668;2023-03-04T09:53:23;101125.22;;;5.59;100.00
12172;BME280;6149;52.418;13.668;2023-03-04T09:56:12;101126.91;;;5.61;100.00
12172;BME280;6149;52.418;13.668;2023-03-04T09:59:04;101133.91;;;5.61;100.00
12172;BME280;6149;52.418;13.668;2023-03-04T10:01:57;101124.06;;;5.70;100.00
12172;BME280;6149;52.418;13.668;2023-03-04T10:04:46;101131.25;;;5.62;100.00
12172;BME280;6149;52.418;13.668;2023-03-04T10:07:36;101126.09;;;5.59;100.00
12172;BME280;6149;52.418;13.668;2023-03-04T10:10:30;101135.69;;;5.60;100.00
12172;BME280;6149;52.418;13.668;2023-03-04T10:13:22;101120.69;;;5.65;100.00
12172;BME280;6149;52.418;13.668;2023-03-04T10:16:18;101118.63;;;5.78;100.00
12172;BME280;6149;52.418;13.668;2023-03-04T10:19:20;101117.69;;;5.81;99.78
12172;BME280;6149;52.418;13.668;2023-03-04T10:22:24;101127.53;;;5.72;99.71
12172;BME280;6149;52.418;13.668;2023-03-04T10:25:18;101125.75;;;5.73;97.67
12172;BME280;6149;52.418;13.668;2023-03-04T10:28:11;101123.66;;;5.89;98.38
12172;BME280;6149;52.418;13.668;2023-03-04T10:31:02;101120.78;;;5.98;97.62
12172;BME280;6149;52.418;13.668;2023-03-04T10:33:49;101119.91;;;5.97;98.23
12172;BME280;6149;52.418;13.668;2023-03-04T10:36:45;101124.25;;;5.98;96.70
12172;BME280;6149;52.418;13.668;2023-03-04T10:39:34;101120.81;;;5.96;97.38
12172;BME280;6149;52.418;13.668;2023-03-04T10:42:28;101119.94;;;5.96;97.48
12172;BME280;6149;52.418;13.668;2023-03-04T10:45:23;101121.63;;;5.98;97.53
12172;BME280;6149;52.418;13.668;2023-03-04T10:48:19;101117.25;;;5.99;98.29
12172;BME280;6149;52.418;13.668;2023-03-04T10:51:17;101109.06;;;6.11;98.44
12172;BME280;6149;52.418;13.668;2023-03-04T10:54:07;101110.75;;;6.14;98.80
12172;BME280;6149;52.418;13.668;2023-03-04T10:56:59;101105.50;;;6.14;98.62
12172;BME280;6149;52.418;13.668;2023-03-04T10:59:46;101107.84;;;6.24;96.62
12172;BME280;6149;52.418;13.668;2023-03-04T11:02:35;101111.41;;;6.22;97.07
12172;BME280;6149;52.418;13.668;2023-03-04T11:05:23;101107.88;;;6.23;98.60
12172;BME280;6149;52.418;13.668;2023-03-04T19:16:10;101126.63;;;4.13;82.96
12172;BME280;6149;52.418;13.668;2023-03-04T19:18:37;101127.44;;;4.15;83.14
12172;BME280;6149;52.418;13.668;2023-03-04T19:21:04;101134.47;;;4.13;84.19
12172;BME280;6149;52.418;13.668;2023-03-04T19:23:31;101142.31;;;4.13;84.28
12172;BME280;6149;52.418;13.668;2023-03-04T19:25:58;101137.97;;;4.12;85.10
12172;BME280;6149;52.418;13.668;2023-03-04T19:28:24;101134.50;;;4.10;86.49
12172;BME280;6149;52.418;13.668;2023-03-04T19:30:51;101140.63;;;4.09;88.05
12172;BME280;6149;52.418;13.668;2023-03-04T19:33:22;101138.09;;;4.06;89.05
12172;BME280;6149;52.418;13.668;2023-03-04T19:35:51;101145.16;;;4.02;89.31
12172;BME280;6149;52.418;13.668;2023-03-04T19:38:18;101139.09;;;3.99;90.61
12172;BME280;6149;52.418;13.668;2023-03-04T19:40:44;101137.44;;;3.95;91.58
12172;BME280;6149;52.418;13.668;2023-03-04T19:43:11;101140.13;;;3.90;91.15
12172;BME280;6149;52.418;13.668;2023-03-04T19:45:37;101141.06;;;3.85;91.91
12172;BME280;6149;52.418;13.668;2023-03-04T19:48:04;101135.91;;;3.82;92.53
12172;BME280;6149;52.418;13.668;2023-03-04T19:50:32;101147.28;;;3.79;93.86
12172;BME280;6149;52.418;13.668;2023-03-04T19:52:59;101136.69;;;3.87;92.33
12172;BME280;6149;52.418;13.668;2023-03-04T19:55:26;101140.25;;;3.81;92.95
12172;BME280;6149;52.418;13.668;2023-03-04T19:57:53;101148.19;;;3.77;92.93
12172;BME280;6149;52.418;13.668;2023-03-04T20:00:19;101152.56;;;3.75;93.08
12172;BME280;6149;52.418;13.668;2023-03-04T20:02:46;101141.28;;;3.73;93.62
12172;BME280;6149;52.418;13.668;2023-03-04T20:05:13;101150.94;;;3.71;93.70
12172;BME280;6149;52.418;13.668;2023-03-04T20:07:41;101149.19;;;3.69;94.46
12172;BME280;6149;52.418;13.668;2023-03-04T20:10:10;101149.22;;;3.68;94.24
12172;BME280;6149;52.418;13.668;2023-03-04T20:12:39;101150.09;;;3.67;95.05
12172;BME280;6149;52.418;13.668;2023-03-04T20:15:07;101157.94;;;3.67;95.31
12172;BME280;6149;52.418;13.668;2023-03-04T20:17:34;101149.28;;;3.65;95.09
12172;BME280;6149;52.418;13.668;2023-03-04T20:20:00;101150.16;;;3.64;94.49
12172;BME280;6149;52.418;13.668;2023-03-04T20:22:27;101149.28;;;3.63;95.68
12172;BME280;6149;52.418;13.668;2023-03-04T20:24:56;101147.59;;;3.61;95.13
12172;BME280;6149;52.418;13.668;2023-03-04T20:27:22;101152.00;;;3.57;95.55
12172;BME280;6149;52.418;13.668;2023-03-04T20:29:49;101152.91;;;3.55;96.04
12172;BME280;6149;52.418;13.668;2023-03-04T20:32:15;101145.13;;;3.50;95.06
12172;BME280;6149;52.418;13.668;2023-03-04T20:34:42;101151.25;;;3.49;95.87
12172;BME280;6149;52.418;13.668;2023-03-04T20:37:09;101150.41;;;3.47;96.55
12172;BME280;6149;52.418;13.668;2023-03-04T20:39:36;101154.78;;;3.47;97.04
12172;BME280;6149;52.418;13.668;2023-03-04T20:42:04;101155.69;;;3.44;96.32
12172;BME280;6149;52.418;13.668;2023-03-04T20:44:31;101152.19;;;3.44;96.39
12172;BME280;6149;52.418;13.668;2023-03-04T20:46:57;101157.44;;;3.42;96.71
12172;BME280;6149;52.418;13.668;2023-03-04T20:49:25;101160.94;;;3.41;97.22
12172;BME280;6149;52.418;13.668;2023-03-04T20:51:54;101153.13;;;3.40;97.08
12172;BME280;6149;52.418;13.668;2023-03-04T20:54:24;101154.88;;;3.39;97.99
12172;BME280;6149;52.418;13.668;2023-03-04T20:56:50;101161.00;;;3.38;97.39
12172;BME280;6149;52.418;13.668;2023-03-04T20:59:18;101161.00;;;3.36;97.58
12172;BME280;6149;52.418;13.668;2023-03-04T21:01:46;101152.31;;;3.36;97.65
12172;BME280;6149;52.418;13.668;2023-03-04T21:04:13;101153.25;;;3.33;98.48
12172;BME280;6149;52.418;13.668;2023-03-04T21:06:40;101154.09;;;3.34;98.25
12172;BME280;6149;52.418;13.668;2023-03-04T21:09:11;101150.63;;;3.33;97.73
12172;BME280;6149;52.418;13.668;2023-03-04T21:11:39;101152.41;;;3.31;98.83
12172;BME280;6149;52.418;13.668;2023-03-04T21:14:08;101156.78;;;3.31;98.33